XBNTZ MMPR-MMGL
Flight info
| Callsign | XBNTZ |
|---|---|
| Flight time | N/A |
| Altitude | 5500 |
| Route | VFR DIRECT |
| Aircraft | C172/L-SG/MODE C |
Departure
| Time | 2026-04-22 03:17 |
|---|---|
| Airport | Puerto Vallarta International Airport (MMPR) |
Arrival
| Time | N/A |
|---|---|
| Airport | Guadalajara International Airport (MMGL) |
| Time | Latitude | Longitude | Altitude | Speed | Heading |
|---|---|---|---|---|---|
| 2026-04-22 02:45 | 20.67843 | -105.25105 | 21 ft | 0 kts | 250° |
| 2026-04-22 03:10 | 20.67841 | -105.25109 | 21 ft | 4 kts | 221° |
| 2026-04-22 03:10 | 20.67838 | -105.25111 | 21 ft | 0 kts | 217° |
| 2026-04-22 03:10 | 20.67827 | -105.25126 | 21 ft | 6 kts | 255° |
| 2026-04-22 03:11 | 20.67864 | -105.25180 | 21 ft | 13 kts | 315° |
| 2026-04-22 03:11 | 20.67922 | -105.25226 | 21 ft | 7 kts | 335° |
| 2026-04-22 03:11 | 20.67981 | -105.25189 | 22 ft | 14 kts | 48° |
| 2026-04-22 03:11 | 20.68053 | -105.25108 | 22 ft | 7 kts | 47° |
| 2026-04-22 03:12 | 20.68065 | -105.25094 | 22 ft | 3 kts | 51° |
| 2026-04-22 03:12 | 20.68139 | -105.25015 | 22 ft | 12 kts | 45° |
| 2026-04-22 03:12 | 20.68202 | -105.24941 | 22 ft | 15 kts | 46° |
| 2026-04-22 03:13 | 20.68277 | -105.24851 | 23 ft | 18 kts | 46° |
| 2026-04-22 03:13 | 20.68350 | -105.24766 | 23 ft | 7 kts | 50° |
| 2026-04-22 03:13 | 20.68367 | -105.24746 | 23 ft | 6 kts | 40° |
| 2026-04-22 03:13 | 20.68434 | -105.24722 | 24 ft | 15 kts | 321° |
| 2026-04-22 03:14 | 20.68445 | -105.24785 | 23 ft | 0 kts | 256° |
| 2026-04-22 03:15 | 20.68442 | -105.24799 | 23 ft | 7 kts | 257° |
| 2026-04-22 03:15 | 20.68452 | -105.24872 | 22 ft | 11 kts | 287° |
| 2026-04-22 03:15 | 20.68448 | -105.24919 | 22 ft | 0 kts | 229° |
| 2026-04-22 03:16 | 20.68443 | -105.24923 | 22 ft | 5 kts | 219° |
| 2026-04-22 03:16 | 20.68338 | -105.25038 | 22 ft | 37 kts | 231° |
| 2026-04-22 03:17 | 20.68071 | -105.25351 | 22 ft | 77 kts | 229° |
| 2026-04-22 03:17 | 20.67710 | -105.25810 | 202 ft | 81 kts | 230° |
| 2026-04-22 03:17 | 20.67339 | -105.26284 | 425 ft | 84 kts | 232° |
| 2026-04-22 03:17 | 20.66982 | -105.26763 | 674 ft | 84 kts | 233° |